Icarus — D5AX3 — position and weather

sailwx.info

Track history (hours):
 
Tides and Currents Weather Stations Pressure Air Temp Water Temp Dewpoint Dewpoint Depression Visibility Wind Speed Wind Dir Waves Ship Positions

Icarus

Last reported at 2015-Sep-03 19:15 UTC. Time now 2015-Sep-04 23:14 UTC.
Position N 36°22' W 002°51'.

Length 225 m; draft 7.4 m.

Type: Cargo ship. MMSI: 636015464.

Date/timePositionNaut miles runAvg speedWind from/ knotsBaromVisibWave heightAir tempDewpointWater temp
2015-Sep-03 19:15N 36°22' W 002°51'811.3
2015-Sep-03 18:33N 36°23' W 002°41'1111.0
2015-Sep-03 17:32N 36°24' W 002°27'1410.9
2015-Sep-03 16:12N 36°26' W 002°09'1011.2
2015-Sep-03 15:19N 36°28' W 001°57'4711.2
2015-Sep-03 11:08N 36°36' W 001°00'9011.8
2015-Sep-03 03:32N 36°50' E 000°50'35313.1
2015-Sep-02 00:32N 37°39' E 008°10'1212.5
2015-Sep-01 23:33N 37°40' E 008°25'1312.5
2015-Sep-01 22:33N 37°42' E 008°41'1212.4
2015-Sep-01 21:33N 37°43' E 008°56'1312.6
2015-Sep-01 20:33N 37°42' E 009°12'1312.6
2015-Sep-01 19:33N 37°42' E 009°28'1312.5
2015-Sep-01 18:32N 37°41' E 009°44'1212.5
2015-Sep-01 17:33N 37°40' E 009°60'1212.5
2015-Sep-01 16:33N 37°39' E 010°16'1312.8
2015-Sep-01 15:33N 37°37' E 010°31'1313.0
2015-Sep-01 14:33N 37°34' E 010°47'1312.5
2015-Sep-01 13:33N 37°30' E 011°02'1312.8
2015-Sep-01 12:33N 37°25' E 011°17'1412.9
2015-Sep-01 11:29N 37°19' E 011°32'1813.1
2015-Sep-01 10:07N 37°10' E 011°53'4612.7
2015-Sep-01 06:29N 36°53' E 012°46'1312.6
2015-Sep-01 05:28N 36°50' E 013°01'1212.7
2015-Sep-01 04:33N 36°46' E 013°15'1712.9
2015-Sep-01 03:12N 36°41' E 013°36'2213.2
2015-Sep-01 01:32N 36°33' E 014°02'1313.4
2015-Sep-01 00:33N 36°29' E 014°18'1313.0
2015-Aug-31 23:33N 36°26' E 014°33'1413.1
2015-Aug-31 22:30N 36°28' E 014°50'1313.2
2015-Aug-31 21:32N 36°29' E 015°06'1212.1
2015-Aug-31 20:33N 36°35' E 015°19'1312.7
2015-Aug-31 19:33N 36°42' E 015°32'1414.2
2015-Aug-31 18:33N 36°48' E 015°48'1414.5
2015-Aug-31 17:33N 36°53' E 016°05'1614.5
2015-Aug-31 16:28N 36°59' E 016°23'15812.2
2015-Aug-31 03:31N 38°50' E 018°45'  
Track history (hours):
 
Tides and Currents Weather Stations Pressure Air Temp Water Temp Dewpoint Dewpoint Depression Visibility Wind Speed Wind Dir Waves Ship Positions

Icarus

Last reported at 2015-Sep-03 19:15 UTC. Time now 2015-Sep-04 23:14 UTC.
Position N 36°22' W 002°51'.

Length 225 m; draft 7.4 m.

Type: Cargo ship. MMSI: 636015464.

Date/timePositionNaut miles runAvg speedWind from/ knotsBaromVisibWave heightAir tempDewpointWater temp
2015-Sep-03 19:15N 36°22' W 002°51'811.3
2015-Sep-03 18:33N 36°23' W 002°41'1111.0
2015-Sep-03 17:32N 36°24' W 002°27'1410.9
2015-Sep-03 16:12N 36°26' W 002°09'1011.2
2015-Sep-03 15:19N 36°28' W 001°57'4711.2
2015-Sep-03 11:08N 36°36' W 001°00'9011.8
2015-Sep-03 03:32N 36°50' E 000°50'35313.1
2015-Sep-02 00:32N 37°39' E 008°10'1212.5
2015-Sep-01 23:33N 37°40' E 008°25'1312.5
2015-Sep-01 22:33N 37°42' E 008°41'1212.4
2015-Sep-01 21:33N 37°43' E 008°56'1312.6
2015-Sep-01 20:33N 37°42' E 009°12'1312.6
2015-Sep-01 19:33N 37°42' E 009°28'1312.5
2015-Sep-01 18:32N 37°41' E 009°44'1212.5
2015-Sep-01 17:33N 37°40' E 009°60'1212.5
2015-Sep-01 16:33N 37°39' E 010°16'1312.8
2015-Sep-01 15:33N 37°37' E 010°31'1313.0
2015-Sep-01 14:33N 37°34' E 010°47'1312.5
2015-Sep-01 13:33N 37°30' E 011°02'1312.8
2015-Sep-01 12:33N 37°25' E 011°17'1412.9
2015-Sep-01 11:29N 37°19' E 011°32'1813.1
2015-Sep-01 10:07N 37°10' E 011°53'4612.7
2015-Sep-01 06:29N 36°53' E 012°46'1312.6
2015-Sep-01 05:28N 36°50' E 013°01'1212.7
2015-Sep-01 04:33N 36°46' E 013°15'1712.9
2015-Sep-01 03:12N 36°41' E 013°36'2213.2
2015-Sep-01 01:32N 36°33' E 014°02'1313.4
2015-Sep-01 00:33N 36°29' E 014°18'1313.0
2015-Aug-31 23:33N 36°26' E 014°33'1413.1
2015-Aug-31 22:30N 36°28' E 014°50'1313.2
2015-Aug-31 21:32N 36°29' E 015°06'1212.1
2015-Aug-31 20:33N 36°35' E 015°19'1312.7
2015-Aug-31 19:33N 36°42' E 015°32'1414.2
2015-Aug-31 18:33N 36°48' E 015°48'1414.5
2015-Aug-31 17:33N 36°53' E 016°05'1614.5
2015-Aug-31 16:28N 36°59' E 016°23'15812.2
2015-Aug-31 03:31N 38°50' E 018°45'  

Dump ship's entire track history